createdAt,value
2017-11-23T00:00:18.985Z,21.43
2017-11-23T00:01:19.309Z,21.46
2017-11-23T00:02:19.043Z,21.51
2017-11-23T00:03:19.087Z,21.52
2017-11-23T00:04:19.108Z,21.45
2017-11-23T00:05:19.140Z,21.45
2017-11-23T00:06:19.173Z,21.49
2017-11-23T00:07:19.202Z,21.49
2017-11-23T00:08:19.537Z,21.45
2017-11-23T00:09:19.268Z,21.42
2017-11-23T00:10:19.358Z,21.45
2017-11-23T00:11:19.328Z,21.43
2017-11-23T00:12:19.360Z,21.42
2017-11-23T00:13:19.391Z,21.42
2017-11-23T00:14:19.437Z,21.46
2017-11-23T00:15:19.805Z,21.49
2017-11-23T00:16:19.494Z,21.38
2017-11-23T00:17:19.525Z,21.40
2017-11-23T00:18:19.558Z,21.43
2017-11-23T00:19:19.585Z,21.40
2017-11-23T00:20:19.617Z,21.42
2017-11-23T00:21:19.660Z,21.38
2017-11-23T00:22:19.980Z,21.37
2017-11-23T00:23:19.717Z,21.34
2017-11-23T00:24:19.742Z,21.37
2017-11-23T00:25:19.770Z,21.37
2017-11-23T00:26:19.810Z,21.38
2017-11-23T00:27:19.837Z,21.42
2017-11-23T00:28:19.865Z,21.34
2017-11-23T00:29:20.197Z,21.36
2017-11-23T00:30:19.929Z,21.34
2017-11-23T00:31:19.965Z,21.38
2017-11-23T00:32:19.993Z,21.34
2017-11-23T00:33:20.023Z,21.36
2017-11-23T00:34:20.055Z,21.37
2017-11-23T00:35:20.088Z,21.40
2017-11-23T00:36:20.427Z,21.33
2017-11-23T00:37:20.151Z,21.33
2017-11-23T00:38:20.389Z,21.38
2017-11-23T00:39:20.213Z,21.37
2017-11-23T00:40:20.245Z,21.37
2017-11-23T00:41:20.274Z,21.33
2017-11-23T00:42:20.311Z,21.33
2017-11-23T00:43:20.638Z,21.33
2017-11-23T00:44:20.371Z,21.33
2017-11-23T00:45:20.401Z,21.34
2017-11-23T00:46:20.437Z,21.31
2017-11-23T00:47:20.480Z,21.30
2017-11-23T00:48:20.499Z,21.31
2017-11-23T00:49:20.530Z,21.37
2017-11-23T00:50:20.860Z,21.37
2017-11-23T00:51:20.600Z,21.33
2017-11-23T00:52:20.631Z,21.27
2017-11-23T00:53:20.659Z,21.28
2017-11-23T00:54:20.690Z,21.37
2017-11-23T00:55:20.716Z,21.28
2017-11-23T00:56:20.753Z,21.36
2017-11-23T00:57:21.083Z,21.30
2017-11-23T00:58:20.828Z,21.27
2017-11-23T00:59:20.843Z,21.31
2017-11-23T01:00:20.881Z,21.30
2017-11-23T01:01:20.912Z,21.33
2017-11-23T01:02:20.949Z,21.37
2017-11-23T01:03:20.974Z,21.36
2017-11-23T01:04:21.354Z,21.33
2017-11-23T01:05:21.038Z,21.33
2017-11-23T01:06:21.065Z,21.27
2017-11-23T01:07:21.098Z,21.33
2017-11-23T01:08:21.132Z,21.30
2017-11-23T01:09:21.165Z,21.31
2017-11-23T01:10:21.190Z,21.30
2017-11-23T01:11:21.557Z,21.28
2017-11-23T01:12:21.260Z,21.31
2017-11-23T01:13:21.288Z,21.30
2017-11-23T01:14:21.331Z,21.30
2017-11-23T01:15:21.354Z,21.31
2017-11-23T01:16:21.390Z,21.26
2017-11-23T01:17:21.414Z,21.36
2017-11-23T01:18:21.750Z,21.31
2017-11-23T01:19:21.475Z,21.28
2017-11-23T01:20:21.508Z,21.27
2017-11-23T01:21:21.542Z,21.33
2017-11-23T01:22:21.574Z,21.30
2017-11-23T01:23:21.602Z,21.33
2017-11-23T01:24:21.631Z,21.34
2017-11-23T01:25:21.977Z,21.30
2017-11-23T01:26:21.705Z,21.30
2017-11-23T01:27:21.746Z,21.37
2017-11-23T01:28:21.771Z,21.30
2017-11-23T01:29:21.805Z,21.31
2017-11-23T01:30:21.842Z,21.33
2017-11-23T01:31:21.855Z,21.31
2017-11-23T01:32:22.192Z,21.33
2017-11-23T01:33:21.922Z,21.34
2017-11-23T01:34:21.957Z,21.34
2017-11-23T01:35:21.981Z,21.37
2017-11-23T01:36:22.012Z,21.31
2017-11-23T01:37:22.047Z,21.34
2017-11-23T01:38:22.083Z,21.31
2017-11-23T01:39:22.420Z,21.31
2017-11-23T01:40:22.140Z,21.31
2017-11-23T01:41:22.173Z,21.37
2017-11-23T01:42:22.206Z,21.31
2017-11-23T01:43:22.240Z,21.37
2017-11-23T01:44:22.328Z,21.33
2017-11-23T01:45:22.295Z,21.36
2017-11-23T01:46:22.645Z,21.31
2017-11-23T01:47:22.367Z,21.31
2017-11-23T01:48:22.397Z,21.31
2017-11-23T01:49:22.433Z,21.31
2017-11-23T01:50:22.460Z,21.31
2017-11-23T01:51:22.486Z,21.22
2017-11-23T01:52:22.520Z,21.31
2017-11-23T01:53:22.847Z,21.31
2017-11-23T01:54:22.579Z,21.21
2017-11-23T01:55:22.609Z,21.26
2017-11-23T01:56:22.659Z,21.38
2017-11-23T01:57:22.679Z,21.34
2017-11-23T01:58:22.705Z,21.30
2017-11-23T01:59:22.735Z,21.22
2017-11-23T02:00:23.078Z,21.26
2017-11-23T02:01:22.800Z,21.24
2017-11-23T02:02:22.833Z,21.26
2017-11-23T02:03:22.867Z,21.36
2017-11-23T02:04:22.903Z,21.22
2017-11-23T02:05:22.938Z,21.36
2017-11-23T02:06:22.958Z,21.33
2017-11-23T02:07:23.292Z,21.24
2017-11-23T02:08:23.024Z,21.31
2017-11-23T02:09:23.099Z,21.26
2017-11-23T02:10:23.089Z,21.30
2017-11-23T02:11:23.117Z,21.24
2017-11-23T02:12:23.146Z,21.31
2017-11-23T02:13:23.182Z,21.26
2017-11-23T02:14:23.525Z,21.28
2017-11-23T02:15:23.259Z,21.28
2017-11-23T02:16:23.290Z,21.28
2017-11-23T02:17:23.327Z,21.26
2017-11-23T02:18:23.339Z,21.36
2017-11-23T02:19:23.366Z,21.19
2017-11-23T02:20:23.701Z,21.28
2017-11-23T02:21:23.435Z,21.26
2017-11-23T02:22:23.499Z,21.24
2017-11-23T02:23:23.501Z,21.31
2017-11-23T02:24:23.532Z,21.31
2017-11-23T02:25:23.566Z,21.24
2017-11-23T02:26:23.889Z,21.22
2017-11-23T02:27:23.628Z,21.34
2017-11-23T02:28:23.656Z,21.27
2017-11-23T02:29:23.696Z,21.30
2017-11-23T02:30:23.718Z,21.21
2017-11-23T02:31:23.749Z,21.30
2017-11-23T02:32:24.106Z,21.28
2017-11-23T02:33:23.846Z,21.24
2017-11-23T02:34:23.881Z,21.34
2017-11-23T02:35:23.886Z,21.28
2017-11-23T02:36:23.909Z,21.33
2017-11-23T02:37:23.938Z,21.34
2017-11-23T02:38:23.967Z,21.21
2017-11-23T02:39:24.313Z,21.30
2017-11-23T02:40:24.040Z,21.19
2017-11-23T02:41:24.067Z,21.21
2017-11-23T02:42:24.102Z,21.27
2017-11-23T02:43:24.127Z,21.27
2017-11-23T02:44:24.158Z,21.30
2017-11-23T02:45:24.192Z,21.22
2017-11-23T02:46:24.524Z,21.21
2017-11-23T02:47:24.336Z,21.21
2017-11-23T02:48:24.300Z,21.26
2017-11-23T02:49:24.330Z,21.22
2017-11-23T02:50:24.374Z,21.30
2017-11-23T02:51:24.376Z,21.24
2017-11-23T02:52:24.408Z,21.30
2017-11-23T02:53:24.742Z,21.34
2017-11-23T02:54:24.549Z,21.26
2017-11-23T02:55:24.530Z,21.24
2017-11-23T02:56:24.538Z,21.26
2017-11-23T02:57:24.569Z,21.21
2017-11-23T02:58:24.604Z,21.30
2017-11-23T02:59:24.637Z,21.24
2017-11-23T03:00:24.969Z,21.19
2017-11-23T03:01:24.704Z,21.27
2017-11-23T03:02:24.781Z,21.27
2017-11-23T03:03:24.764Z,21.18
2017-11-23T03:04:24.786Z,21.26
2017-11-23T03:05:24.817Z,21.19
2017-11-23T03:06:24.850Z,21.28
2017-11-23T03:07:25.257Z,21.21
2017-11-23T03:08:24.915Z,21.22
2017-11-23T03:09:24.943Z,21.28
2017-11-23T03:10:25.036Z,21.16
2017-11-23T03:11:25.010Z,21.26
2017-11-23T03:12:25.047Z,21.26
2017-11-23T03:13:25.087Z,21.28
2017-11-23T03:14:25.510Z,21.22
2017-11-23T03:15:25.153Z,21.28
2017-11-23T03:16:25.172Z,21.26
2017-11-23T03:17:25.196Z,21.28
2017-11-23T03:18:25.230Z,21.28
2017-11-23T03:19:25.287Z,21.26
2017-11-23T03:20:25.332Z,21.24
2017-11-23T03:21:25.676Z,21.28
2017-11-23T03:22:25.359Z,21.30
2017-11-23T03:23:25.419Z,21.26
2017-11-23T03:24:25.425Z,21.24
2017-11-23T03:25:25.463Z,21.21
2017-11-23T03:26:25.540Z,21.31
2017-11-23T03:27:25.546Z,21.28
2017-11-23T03:28:25.885Z,21.24
2017-11-23T03:29:25.578Z,21.22
2017-11-23T03:30:25.620Z,21.18
2017-11-23T03:31:25.712Z,21.33
2017-11-23T03:32:25.700Z,21.19
2017-11-23T03:33:25.738Z,21.30
2017-11-23T03:34:25.736Z,21.22
2017-11-23T03:35:26.076Z,21.30
2017-11-23T03:36:25.838Z,21.21
2017-11-23T03:37:25.845Z,21.24
2017-11-23T03:38:25.865Z,21.26
2017-11-23T03:39:25.892Z,21.27
2017-11-23T03:40:25.933Z,21.19
2017-11-23T03:41:25.956Z,21.26
2017-11-23T03:42:26.337Z,21.21
2017-11-23T03:43:26.017Z,21.22
2017-11-23T03:44:26.089Z,21.28
2017-11-23T03:45:26.086Z,21.21
2017-11-23T03:46:26.115Z,21.21
2017-11-23T03:47:26.145Z,21.28
2017-11-23T03:48:26.174Z,21.24
2017-11-23T03:49:26.515Z,21.33
2017-11-23T03:50:26.249Z,21.24
2017-11-23T03:51:26.277Z,21.27
2017-11-23T03:52:26.302Z,21.26
2017-11-23T03:53:26.335Z,21.28
2017-11-23T03:54:26.375Z,21.28
2017-11-23T03:55:26.394Z,21.27
2017-11-23T03:56:26.738Z,21.33
2017-11-23T03:57:26.481Z,21.24
2017-11-23T03:58:26.494Z,21.31
2017-11-23T03:59:26.520Z,21.31
2017-11-23T04:00:26.561Z,21.22
2017-11-23T04:01:26.591Z,21.30
2017-11-23T04:02:26.662Z,21.21
2017-11-23T04:03:26.973Z,21.30
2017-11-23T04:04:26.689Z,21.31
2017-11-23T04:05:26.801Z,21.28
2017-11-23T04:06:26.745Z,21.24
2017-11-23T04:07:26.780Z,21.21
2017-11-23T04:08:26.820Z,21.21
2017-11-23T04:09:27.152Z,21.24
2017-11-23T04:10:26.872Z,21.19
2017-11-23T04:11:26.994Z,21.21
2017-11-23T04:12:26.983Z,21.21
2017-11-23T04:13:27.014Z,21.24
2017-11-23T04:14:27.002Z,21.24
2017-11-23T04:15:27.330Z,21.22
2017-11-23T04:16:27.064Z,21.18
2017-11-23T04:17:27.128Z,21.31
2017-11-23T04:18:27.144Z,21.18
2017-11-23T04:19:27.167Z,21.28
2017-11-23T04:20:27.193Z,21.24
2017-11-23T04:21:27.519Z,21.21
2017-11-23T04:22:27.397Z,21.30
2017-11-23T04:23:27.305Z,21.24
2017-11-23T04:24:27.330Z,21.21
2017-11-23T04:25:27.368Z,21.28
2017-11-23T04:26:27.376Z,21.30
2017-11-23T04:27:27.426Z,21.27
2017-11-23T04:28:27.741Z,21.22
2017-11-23T04:29:27.472Z,21.34
2017-11-23T04:30:27.535Z,21.30
2017-11-23T04:31:27.531Z,21.31
2017-11-23T04:32:27.571Z,21.22
2017-11-23T04:33:27.598Z,21.21
2017-11-23T04:34:27.631Z,21.34
2017-11-23T04:35:28.011Z,21.33
2017-11-23T04:36:27.691Z,21.27
2017-11-23T04:37:27.777Z,21.26
2017-11-23T04:38:27.753Z,21.24
2017-11-23T04:39:27.785Z,21.24
2017-11-23T04:40:27.824Z,21.27
2017-11-23T04:41:27.850Z,21.31
2017-11-23T04:42:28.177Z,21.33
2017-11-23T04:43:27.911Z,21.21
2017-11-23T04:44:27.951Z,21.30
2017-11-23T04:45:28.021Z,21.34
2017-11-23T04:46:28.011Z,21.28
2017-11-23T04:47:28.087Z,21.24
2017-11-23T04:48:28.068Z,21.19
2017-11-23T04:49:29.161Z,21.24
2017-11-23T04:50:28.171Z,21.28
2017-11-23T04:51:28.162Z,21.31
2017-11-23T04:52:28.198Z,21.28
2017-11-23T04:53:28.263Z,21.33
2017-11-23T04:54:28.280Z,21.33
2017-11-23T04:55:28.289Z,21.33
2017-11-23T04:56:28.630Z,21.36
2017-11-23T04:57:28.356Z,21.27
2017-11-23T04:58:28.386Z,21.33
2017-11-23T04:59:28.414Z,21.21
2017-11-23T05:00:28.445Z,21.33
2017-11-23T05:01:28.476Z,21.24
2017-11-23T05:02:28.513Z,21.33
2017-11-23T05:03:28.851Z,21.34
2017-11-23T05:04:28.578Z,21.36
2017-11-23T05:05:28.604Z,21.33
2017-11-23T05:06:28.661Z,21.28
2017-11-23T05:07:28.678Z,21.36
2017-11-23T05:08:28.697Z,21.30
2017-11-23T05:09:28.731Z,21.36
2017-11-23T05:10:29.068Z,21.33
2017-11-23T05:11:28.802Z,21.27
2017-11-23T05:12:28.834Z,21.37
2017-11-23T05:13:28.857Z,21.34
2017-11-23T05:14:28.888Z,21.33
2017-11-23T05:15:28.935Z,21.33
2017-11-23T05:16:28.955Z,21.37
2017-11-23T05:17:29.367Z,21.31
2017-11-23T05:18:29.063Z,21.31
2017-11-23T05:19:29.054Z,21.34
2017-11-23T05:20:29.086Z,21.37
2017-11-23T05:21:29.113Z,21.37
2017-11-23T05:22:29.208Z,21.34
2017-11-23T05:23:29.205Z,21.28
2017-11-23T05:24:29.511Z,21.30
2017-11-23T05:25:29.235Z,21.31
2017-11-23T05:26:29.277Z,21.27
2017-11-23T05:27:29.320Z,21.28
2017-11-23T05:28:29.333Z,21.30
2017-11-23T05:29:29.371Z,21.30
2017-11-23T05:30:29.406Z,21.27
2017-11-23T05:31:29.727Z,21.30
2017-11-23T05:32:29.475Z,21.36
2017-11-23T05:33:29.495Z,21.33
2017-11-23T05:34:29.523Z,21.26
2017-11-23T05:35:29.570Z,21.36
2017-11-23T05:36:29.585Z,21.28
2017-11-23T05:37:29.621Z,21.26
2017-11-23T05:38:29.960Z,21.31
2017-11-23T05:39:29.711Z,21.40
2017-11-23T05:40:29.709Z,21.37
2017-11-23T05:41:29.742Z,21.31
2017-11-23T05:42:29.789Z,21.27
2017-11-23T05:43:29.804Z,21.31
2017-11-23T05:44:29.840Z,21.27
2017-11-23T05:45:30.177Z,21.36
2017-11-23T05:46:29.907Z,21.33
2017-11-23T05:47:29.985Z,21.33
2017-11-23T05:48:29.987Z,21.30
2017-11-23T05:49:29.995Z,21.38
2017-11-23T05:50:30.031Z,21.36
2017-11-23T05:51:30.085Z,21.28
2017-11-23T05:52:30.456Z,21.28
2017-11-23T05:53:30.129Z,21.30
2017-11-23T05:54:30.164Z,21.37
2017-11-23T05:55:30.253Z,21.31
2017-11-23T05:56:30.228Z,21.30
2017-11-23T05:57:30.276Z,21.31
2017-11-23T05:58:30.583Z,21.31
2017-11-23T05:59:30.313Z,21.37
2017-11-23T06:00:30.343Z,21.28
2017-11-23T06:01:30.386Z,21.27
2017-11-23T06:02:30.412Z,21.31
2017-11-23T06:03:30.439Z,21.28
2017-11-23T06:04:30.774Z,21.31
2017-11-23T06:05:30.509Z,21.33
2017-11-23T06:06:30.535Z,21.27
2017-11-23T06:07:31.024Z,21.30
2017-11-23T06:08:30.643Z,21.37
2017-11-23T06:09:30.629Z,21.30
2017-11-23T06:10:30.961Z,21.36
2017-11-23T06:11:30.700Z,21.28
2017-11-23T06:12:30.727Z,21.34
2017-11-23T06:13:30.755Z,21.31
2017-11-23T06:14:30.786Z,21.33
2017-11-23T06:15:30.825Z,21.31
2017-11-23T06:16:30.861Z,21.28
2017-11-23T06:17:31.192Z,21.33
2017-11-23T06:18:30.916Z,21.31
2017-11-23T06:19:30.943Z,21.31
2017-11-23T06:20:30.980Z,21.30
2017-11-23T06:21:31.024Z,21.31
2017-11-23T06:22:31.045Z,21.31
2017-11-23T06:23:31.070Z,21.33
2017-11-23T06:24:31.404Z,21.30
2017-11-23T06:25:31.144Z,21.31
2017-11-23T06:26:31.179Z,21.31
2017-11-23T06:27:31.198Z,21.31
2017-11-23T06:28:31.232Z,21.33
2017-11-23T06:29:31.274Z,21.38
2017-11-23T06:30:31.300Z,21.30
2017-11-23T06:31:31.627Z,21.30
2017-11-23T06:32:31.355Z,21.31
2017-11-23T06:33:31.402Z,21.30
2017-11-23T06:34:31.422Z,21.31
2017-11-23T06:35:31.453Z,21.36
2017-11-23T06:36:31.485Z,21.43
2017-11-23T06:37:31.524Z,21.33
2017-11-23T06:38:31.869Z,21.36
2017-11-23T06:39:31.584Z,21.31
2017-11-23T06:40:31.616Z,21.30
2017-11-23T06:41:31.645Z,21.26
2017-11-23T06:42:31.674Z,21.37
2017-11-23T06:43:31.705Z,21.30
2017-11-23T06:44:31.753Z,21.31
2017-11-23T06:45:32.121Z,21.31
2017-11-23T06:46:31.799Z,21.37
2017-11-23T06:47:31.833Z,21.30
2017-11-23T06:48:31.867Z,21.31
2017-11-23T06:49:31.897Z,21.37
2017-11-23T06:50:31.940Z,21.30
2017-11-23T06:51:31.958Z,21.37
2017-11-23T06:52:32.291Z,21.31
2017-11-23T06:53:32.027Z,21.38
2017-11-23T06:54:32.061Z,21.34
2017-11-23T06:55:32.086Z,21.34
2017-11-23T06:56:32.119Z,21.38
2017-11-23T06:57:32.147Z,21.36
2017-11-23T06:58:32.196Z,21.33
2017-11-23T06:59:32.512Z,21.38
2017-11-23T07:00:32.247Z,21.34
2017-11-23T07:01:32.322Z,21.38
2017-11-23T07:02:32.307Z,21.36
2017-11-23T07:03:32.341Z,21.36
2017-11-23T07:04:32.377Z,21.28
2017-11-23T07:05:32.403Z,21.40
2017-11-23T07:06:32.784Z,21.36
2017-11-23T07:07:32.470Z,21.34
2017-11-23T07:08:32.497Z,21.36
2017-11-23T07:09:32.530Z,21.38
2017-11-23T07:10:32.578Z,21.43
2017-11-23T07:11:32.592Z,21.40
2017-11-23T07:12:32.629Z,21.42
2017-11-23T07:13:32.955Z,21.38
2017-11-23T07:14:32.702Z,21.36
2017-11-23T07:15:32.721Z,21.42
2017-11-23T07:16:32.751Z,21.38
2017-11-23T07:17:32.821Z,21.34
2017-11-23T07:18:32.830Z,21.40
2017-11-23T07:19:32.857Z,21.46
2017-11-23T07:20:33.333Z,21.42
2017-11-23T07:21:32.911Z,21.42
2017-11-23T07:22:32.952Z,21.46
2017-11-23T07:23:32.975Z,21.46
2017-11-23T07:24:33.012Z,21.38
2017-11-23T07:25:33.038Z,21.46
2017-11-23T07:26:33.070Z,21.49
2017-11-23T07:27:33.400Z,21.49
2017-11-23T07:28:33.135Z,21.51
2017-11-23T07:29:33.167Z,21.49
2017-11-23T07:30:33.211Z,21.40
2017-11-23T07:31:33.228Z,21.48
2017-11-23T07:32:33.258Z,21.45
2017-11-23T07:33:33.295Z,21.43
2017-11-23T07:34:33.627Z,21.46
2017-11-23T07:35:33.357Z,21.43
2017-11-23T07:36:33.436Z,21.42
2017-11-23T07:37:33.419Z,21.51
2017-11-23T07:38:33.483Z,21.45
2017-11-23T07:39:33.485Z,21.49
2017-11-23T07:40:33.817Z,21.38
2017-11-23T07:41:33.577Z,21.49
2017-11-23T07:42:33.597Z,21.48
2017-11-23T07:43:33.605Z,21.48
2017-11-23T07:44:33.645Z,21.42
2017-11-23T07:45:33.671Z,21.46
2017-11-23T07:46:34.117Z,21.51
2017-11-23T07:47:33.733Z,21.42
2017-11-23T07:48:33.765Z,21.52
2017-11-23T07:49:33.892Z,21.43
2017-11-23T07:50:33.832Z,21.48
2017-11-23T07:51:33.868Z,21.43
2017-11-23T07:52:34.196Z,21.52
2017-11-23T07:53:34.735Z,21.45
2017-11-23T07:54:33.961Z,21.42
2017-11-23T07:55:33.995Z,21.43
2017-11-23T07:56:34.021Z,21.46
2017-11-23T07:57:34.052Z,21.46
2017-11-23T07:58:34.084Z,21.43
2017-11-23T07:59:34.471Z,21.51
2017-11-23T08:00:34.153Z,21.48
2017-11-23T08:01:34.178Z,21.46
2017-11-23T08:02:34.217Z,21.46
2017-11-23T08:03:34.248Z,21.43
2017-11-23T08:04:34.273Z,21.48
2017-11-23T08:05:34.307Z,21.42
2017-11-23T08:06:34.644Z,21.46
2017-11-23T08:07:34.376Z,21.46
2017-11-23T08:08:34.401Z,21.46
2017-11-23T08:09:34.437Z,21.51
2017-11-23T08:10:34.468Z,21.52
2017-11-23T08:11:34.502Z,21.45
2017-11-23T08:12:34.538Z,21.51
2017-11-23T08:13:34.864Z,21.56
2017-11-23T08:14:34.596Z,21.55
2017-11-23T08:15:34.630Z,21.52
2017-11-23T08:16:34.659Z,21.55
2017-11-23T08:17:34.689Z,21.59
2017-11-23T08:18:34.737Z,21.52
2017-11-23T08:19:34.753Z,21.51
2017-11-23T08:20:35.094Z,21.53
2017-11-23T08:21:34.821Z,21.55
2017-11-23T08:22:34.856Z,21.61
2017-11-23T08:23:34.879Z,21.58
2017-11-23T08:24:35.112Z,21.58
2017-11-23T08:25:34.948Z,21.55
2017-11-23T08:26:34.978Z,21.58
2017-11-23T08:27:35.378Z,21.58
2017-11-23T08:29:35.076Z,21.55
2017-11-23T08:30:35.126Z,21.58
2017-11-23T08:31:35.138Z,21.59
2017-11-23T08:32:35.185Z,21.56
2017-11-23T08:33:35.265Z,21.59
2017-11-23T08:34:35.594Z,21.66
2017-11-23T08:35:35.285Z,21.66
2017-11-23T08:36:35.303Z,21.71
2017-11-23T08:37:35.341Z,21.67
2017-11-23T08:38:35.415Z,21.67
2017-11-23T08:39:35.396Z,21.71
2017-11-23T08:40:35.445Z,21.68
2017-11-23T08:41:35.752Z,21.63
2017-11-23T08:42:35.528Z,21.67
2017-11-23T08:43:35.521Z,21.66
2017-11-23T08:44:35.591Z,21.66
2017-11-23T08:45:35.625Z,21.71
2017-11-23T08:46:35.614Z,21.68
2017-11-23T08:47:35.682Z,21.67
2017-11-23T08:48:35.981Z,21.67
2017-11-23T08:49:35.711Z,21.75
2017-11-23T08:50:35.745Z,21.74
2017-11-23T08:51:35.802Z,21.68
2017-11-23T08:52:35.815Z,21.71
2017-11-23T08:53:35.836Z,21.75
2017-11-23T08:54:35.870Z,21.71
2017-11-23T08:55:36.202Z,21.68
2017-11-23T08:56:35.934Z,21.68
2017-11-23T08:57:35.966Z,21.71
2017-11-23T08:58:36.000Z,21.70
2017-11-23T08:59:36.036Z,21.73
2017-11-23T09:00:36.112Z,21.74
2017-11-23T09:01:36.107Z,21.73
2017-11-23T09:02:36.430Z,21.74
2017-11-23T09:03:36.169Z,21.74
2017-11-23T09:04:36.207Z,21.74
2017-11-23T09:05:36.234Z,21.79
2017-11-23T09:06:36.264Z,21.82
2017-11-23T09:07:36.296Z,21.83
2017-11-23T09:08:36.331Z,21.79
2017-11-23T09:09:36.651Z,21.81
2017-11-23T09:10:36.386Z,21.70
2017-11-23T09:11:36.423Z,21.83
2017-11-23T09:12:36.453Z,21.79
2017-11-23T09:13:36.484Z,21.83
2017-11-23T09:14:36.518Z,21.85
2017-11-23T09:15:36.565Z,21.86
2017-11-23T09:16:36.874Z,21.89
2017-11-23T09:17:36.606Z,21.86
2017-11-23T09:18:36.643Z,21.85
2017-11-23T09:19:36.679Z,21.82
2017-11-23T09:20:36.712Z,21.86
2017-11-23T09:21:36.735Z,21.86
2017-11-23T09:22:36.767Z,21.81
2017-11-23T09:23:37.109Z,21.93
2017-11-23T09:24:36.832Z,21.91
2017-11-23T09:25:36.867Z,21.93
2017-11-23T09:26:36.900Z,21.93
2017-11-23T09:27:36.938Z,21.96
2017-11-23T09:28:36.968Z,21.90
2017-11-23T09:29:36.991Z,21.91
2017-11-23T09:30:37.325Z,21.93
2017-11-23T09:31:37.062Z,21.86
2017-11-23T09:32:37.091Z,21.90
2017-11-23T09:33:37.121Z,21.89
2017-11-23T09:34:37.153Z,21.90
2017-11-23T09:35:37.194Z,21.93
2017-11-23T09:36:37.571Z,21.85
2017-11-23T09:37:37.252Z,21.89
2017-11-23T09:38:37.319Z,21.91
2017-11-23T09:39:37.314Z,21.90
2017-11-23T09:40:37.346Z,21.96
2017-11-23T09:41:37.380Z,21.91
2017-11-23T09:42:37.711Z,21.93
2017-11-23T09:43:37.443Z,21.86
2017-11-23T09:44:37.481Z,21.96
2017-11-23T09:45:37.508Z,21.96
2017-11-23T09:46:37.541Z,21.98
2017-11-23T09:47:37.583Z,21.96
2017-11-23T09:48:37.908Z,21.98
2017-11-23T09:49:37.636Z,21.96
2017-11-23T09:50:37.670Z,21.99
2017-11-23T09:51:37.733Z,21.94
2017-11-23T09:52:37.742Z,22.04
2017-11-23T09:53:37.767Z,22.01
2017-11-23T09:54:37.802Z,21.99
2017-11-23T09:55:38.131Z,21.99
2017-11-23T09:56:37.862Z,21.99
2017-11-23T09:57:37.895Z,22.08
2017-11-23T09:58:37.928Z,22.04
2017-11-23T09:59:38.002Z,21.99
2017-11-23T10:00:37.995Z,22.06
2017-11-23T10:01:38.071Z,22.06
2017-11-23T10:02:38.357Z,22.08
2017-11-23T10:03:38.094Z,22.08
2017-11-23T10:04:38.132Z,22.12
2017-11-23T10:05:38.178Z,22.09
2017-11-23T10:06:38.194Z,22.08
2017-11-23T10:07:38.226Z,22.01
2017-11-23T10:08:38.265Z,22.04
2017-11-23T10:09:38.585Z,22.12
2017-11-23T10:10:38.317Z,22.02
2017-11-23T10:11:38.360Z,22.11
2017-11-23T10:12:38.380Z,22.14
2017-11-23T10:13:38.412Z,22.08
2017-11-23T10:14:38.449Z,22.14
2017-11-23T10:15:38.479Z,22.04
2017-11-23T10:16:38.815Z,22.09
2017-11-23T10:17:38.548Z,22.11
2017-11-23T10:18:38.576Z,22.09
2017-11-23T10:19:38.608Z,22.06
2017-11-23T10:20:38.639Z,22.15
2017-11-23T10:21:38.675Z,22.11
2017-11-23T10:22:38.713Z,22.09
2017-11-23T10:23:39.051Z,22.12
2017-11-23T10:24:38.777Z,22.06
2017-11-23T10:25:38.802Z,22.06
2017-11-23T10:26:38.832Z,22.11
2017-11-23T10:27:38.873Z,22.11
2017-11-23T10:28:38.898Z,22.24
2017-11-23T10:29:38.940Z,22.17
2017-11-23T10:30:39.270Z,22.19
2017-11-23T10:31:39.005Z,22.27
2017-11-23T10:32:39.031Z,22.21
2017-11-23T10:33:39.071Z,22.21
2017-11-23T10:34:39.092Z,22.24
2017-11-23T10:35:39.130Z,22.17
2017-11-23T10:36:39.159Z,22.27
2017-11-23T10:37:39.504Z,22.17
2017-11-23T10:38:39.224Z,22.21
2017-11-23T10:39:39.260Z,22.24
2017-11-23T10:40:39.297Z,22.15
2017-11-23T10:41:39.323Z,22.14
2017-11-23T10:42:39.358Z,22.21
2017-11-23T10:43:39.387Z,22.23
2017-11-23T10:44:39.715Z,22.11
2017-11-23T10:45:39.451Z,22.19
2017-11-23T10:46:39.486Z,22.20
2017-11-23T10:48:39.549Z,22.17
2017-11-23T10:49:39.582Z,22.15
2017-11-23T10:50:39.612Z,22.17
2017-11-23T10:51:39.956Z,22.14
2017-11-23T10:52:39.699Z,22.08
2017-11-23T10:53:39.711Z,22.12
2017-11-23T10:54:39.747Z,22.14
2017-11-23T10:55:39.771Z,22.15
2017-11-23T10:56:39.807Z,22.15
2017-11-23T10:57:39.844Z,22.14
2017-11-23T10:58:40.171Z,22.11
2017-11-23T10:59:39.932Z,22.11
2017-11-23T11:00:39.943Z,22.04
2017-11-23T11:01:39.968Z,22.11
2017-11-23T11:02:40.004Z,22.11
2017-11-23T11:03:40.034Z,22.09
2017-11-23T11:04:40.074Z,22.09
2017-11-23T11:05:40.453Z,22.06
2017-11-23T11:06:40.135Z,22.11
2017-11-23T11:07:40.161Z,22.08
2017-11-23T11:08:40.213Z,22.09
2017-11-23T11:09:40.228Z,22.11
2017-11-23T11:10:40.276Z,22.19
2017-11-23T11:11:40.296Z,22.15
2017-11-23T11:12:40.701Z,22.17
2017-11-23T11:13:40.359Z,22.17
2017-11-23T11:14:40.396Z,22.21
2017-11-23T11:15:40.476Z,22.21
2017-11-23T11:16:40.522Z,22.23
2017-11-23T11:17:40.485Z,22.24
2017-11-23T11:18:40.818Z,22.24
2017-11-23T11:19:40.551Z,22.30
2017-11-23T11:20:40.607Z,22.31
2017-11-23T11:21:40.629Z,22.29
2017-11-23T11:22:40.657Z,22.30
2017-11-23T11:23:40.684Z,22.27
2017-11-23T11:24:41.017Z,22.24
2017-11-23T11:25:40.749Z,22.24
2017-11-23T11:26:40.787Z,22.30
2017-11-23T11:27:40.824Z,22.36
2017-11-23T11:28:40.849Z,22.36
2017-11-23T11:29:40.879Z,22.38
2017-11-23T11:30:41.268Z,22.39
2017-11-23T11:31:40.946Z,22.39
2017-11-23T11:32:40.984Z,22.33
2017-11-23T11:33:41.007Z,22.38
2017-11-23T11:34:41.093Z,22.49
2017-11-23T11:35:41.078Z,22.41
2017-11-23T11:36:41.150Z,22.41
2017-11-23T11:37:41.455Z,22.51
2017-11-23T11:38:41.175Z,22.41
2017-11-23T11:39:41.207Z,22.46
2017-11-23T11:40:41.255Z,22.48
2017-11-23T11:41:41.271Z,22.49
2017-11-23T11:42:41.303Z,22.51
2017-11-23T11:43:41.333Z,22.51
2017-11-23T11:44:41.701Z,22.45
2017-11-23T11:45:41.407Z,22.48
2017-11-23T11:46:41.435Z,22.46
2017-11-23T11:47:41.626Z,22.51
2017-11-23T11:48:41.530Z,22.49
2017-11-23T11:49:41.532Z,22.56
2017-11-23T11:50:41.577Z,22.48
2017-11-23T11:51:41.902Z,22.51
2017-11-23T11:52:41.631Z,22.49
2017-11-23T11:53:41.663Z,22.51
2017-11-23T11:54:41.700Z,22.48
2017-11-23T11:55:41.749Z,22.42
2017-11-23T11:56:41.763Z,22.41
2017-11-23T11:57:41.793Z,22.49
2017-11-23T11:58:42.129Z,22.46
2017-11-23T11:59:41.866Z,22.42
2017-11-23T12:00:41.901Z,22.39
2017-11-23T12:01:41.929Z,22.39
2017-11-23T12:02:41.960Z,22.42
2017-11-23T12:03:41.997Z,22.36
2017-11-23T12:04:42.033Z,22.36
2017-11-23T12:05:42.354Z,22.42
2017-11-23T12:06:42.094Z,22.26
2017-11-23T12:07:42.130Z,22.36
2017-11-23T12:08:42.155Z,22.26
2017-11-23T12:09:42.187Z,22.30
2017-11-23T12:10:42.220Z,22.33
2017-11-23T12:11:42.262Z,22.29
2017-11-23T12:12:42.585Z,22.30
2017-11-23T12:13:42.317Z,22.26
2017-11-23T12:14:42.346Z,22.33
2017-11-23T12:15:42.391Z,22.26
2017-11-23T12:16:42.414Z,22.24
2017-11-23T12:17:42.450Z,22.20
2017-11-23T12:18:42.479Z,22.20
2017-11-23T12:19:42.811Z,22.23
2017-11-23T12:20:42.542Z,22.11
2017-11-23T12:21:42.574Z,22.19
2017-11-23T12:22:42.609Z,22.24
2017-11-23T12:23:42.644Z,22.20
2017-11-23T12:24:42.672Z,22.19
2017-11-23T12:25:42.717Z,22.19
2017-11-23T12:26:43.040Z,22.27
2017-11-23T12:27:42.785Z,22.23
2017-11-23T12:28:42.805Z,22.21
2017-11-23T12:29:42.835Z,22.24
2017-11-23T12:30:42.868Z,22.19
2017-11-23T12:31:42.905Z,22.19
2017-11-23T12:32:42.933Z,22.23
2017-11-23T12:33:43.268Z,22.24
2017-11-23T12:34:43.002Z,22.17
2017-11-23T12:35:43.048Z,22.23
2017-11-23T12:36:43.067Z,22.23
2017-11-23T12:37:43.095Z,22.21
2017-11-23T12:38:43.135Z,22.26
2017-11-23T12:39:43.164Z,22.24
2017-11-23T12:40:43.506Z,22.29
2017-11-23T12:41:43.245Z,22.23
2017-11-23T12:42:43.258Z,22.26
2017-11-23T12:43:43.288Z,22.29
2017-11-23T12:44:43.326Z,22.29
2017-11-23T12:45:43.355Z,22.31
2017-11-23T12:46:43.390Z,22.31
2017-11-23T12:48:43.805Z,22.26
2017-11-23T12:49:43.486Z,22.24
2017-11-23T12:50:43.553Z,22.27
2017-11-23T12:51:43.549Z,22.29
2017-11-23T12:52:43.580Z,22.31
2017-11-23T12:53:43.616Z,22.36
2017-11-23T12:54:43.649Z,22.27
2017-11-23T12:55:43.983Z,22.41